Amber Lagoon — V7FS4 — position and weather

sailwx.info

Track history (hours):
 
Tides and Currents Weather Stations Pressure Air Temp Water Temp Dewpoint Dewpoint Depression Visibility Wind Speed Wind Dir Waves Ship Positions

Amber Lagoon

Last reported at 2015-Jul-30 04:33 UTC. Time now 2015-Jul-30 06:12 UTC.
Position N 38°50' W 075°04'.

Length 192 m; draft 8.9 m.

Type: Cargo ship. MMSI: 538090116.

Date/timePositionNaut miles runAvg speedWind from/ knotsBaromVisibWave heightAir tempDewpointWater temp
2015-Jul-30 04:33N 38°50' W 075°04'1615.6
2015-Jul-30 03:34N 39°05' W 075°11'1414.0
2015-Jul-30 02:34N 39°16' W 075°21'1313.4
2015-Jul-30 01:34N 39°26' W 075°32'1211.6
2015-Jul-30 00:34N 39°38' W 075°35'1111.2
2015-Jul-29 23:34N 39°47' W 075°27'1010.3
2015-Jul-29 22:34N 39°51' W 075°15'7 6.8
2015-Jul-29 21:31N 39°56' W 075°08'0 0.0
2015-Jul-29 20:31N 39°56' W 075°08'0 0.0
2015-Jul-29 19:31N 39°56' W 075°08'0 0.0
2015-Jul-29 18:31N 39°56' W 075°08'0 0.0
2015-Jul-29 17:31N 39°56' W 075°08'0 0.0
2015-Jul-29 16:31N 39°56' W 075°08'0 0.0
2015-Jul-29 15:31N 39°56' W 075°08'0 0.0
2015-Jul-29 14:31N 39°56' W 075°08'0 0.0
2015-Jul-29 13:31N 39°56' W 075°08'0 0.0
2015-Jul-29 12:32N 39°56' W 075°08'0 0.0
2015-Jul-29 11:28N 39°56' W 075°08'0 0.0
2015-Jul-29 10:31N 39°56' W 075°08'0 0.0
2015-Jul-29 09:31N 39°56' W 075°08'0 0.0
2015-Jul-29 08:31N 39°56' W 075°08'0 0.0
2015-Jul-29 07:31N 39°56' W 075°08'0 0.0
2015-Jul-29 06:33N 39°56' W 075°08'0 0.0
2015-Jul-29 05:33N 39°56' W 075°08'0 0.0
2015-Jul-29 04:33N 39°56' W 075°08'0 0.0
2015-Jul-29 03:33N 39°56' W 075°08'0 0.0
2015-Jul-29 02:33N 39°56' W 075°08'5 4.8
2015-Jul-29 01:33N 39°53' W 075°12'9 9.3
2015-Jul-29 00:33N 39°49' W 075°23'9 9.3
2015-Jul-28 23:33N 39°42' W 075°31'1313.0
2015-Jul-28 22:33N 39°29' W 075°34'1514.8
2015-Jul-28 21:33N 39°17' W 075°22'1514.6
2015-Jul-28 20:33N 39°05' W 075°11'1514.8
2015-Jul-28 19:34N 38°52' W 075°04'1312.6
2015-Jul-28 18:33N 38°42' W 074°54'1312.8
2015-Jul-28 17:33N 38°32' W 074°44'6 6.2
2015-Jul-28 16:32N 38°27' W 074°38'13 9.9
2015-Jul-28 15:14N 38°22' W 074°23'2 1.8
2015-Jul-28 14:17N 38°22' W 074°21'2810.1
2015-Jul-28 11:33N 38°15' W 073°47'2712.8
2015-Jul-28 09:26N 38°05' W 073°14'1213.2
2015-Jul-28 08:31N 38°02' W 072°59'1413.5
2015-Jul-28 07:31N 37°58' W 072°43'1413.6
2015-Jul-28 06:31N 37°53' W 072°27'1313.7
2015-Jul-28 05:33N 37°49' W 072°11'  
Track history (hours):
 
Tides and Currents Weather Stations Pressure Air Temp Water Temp Dewpoint Dewpoint Depression Visibility Wind Speed Wind Dir Waves Ship Positions

Amber Lagoon

Last reported at 2015-Jul-30 04:33 UTC. Time now 2015-Jul-30 06:12 UTC.
Position N 38°50' W 075°04'.

Length 192 m; draft 8.9 m.

Type: Cargo ship. MMSI: 538090116.

Date/timePositionNaut miles runAvg speedWind from/ knotsBaromVisibWave heightAir tempDewpointWater temp
2015-Jul-30 04:33N 38°50' W 075°04'1615.6
2015-Jul-30 03:34N 39°05' W 075°11'1414.0
2015-Jul-30 02:34N 39°16' W 075°21'1313.4
2015-Jul-30 01:34N 39°26' W 075°32'1211.6
2015-Jul-30 00:34N 39°38' W 075°35'1111.2
2015-Jul-29 23:34N 39°47' W 075°27'1010.3
2015-Jul-29 22:34N 39°51' W 075°15'7 6.8
2015-Jul-29 21:31N 39°56' W 075°08'0 0.0
2015-Jul-29 20:31N 39°56' W 075°08'0 0.0
2015-Jul-29 19:31N 39°56' W 075°08'0 0.0
2015-Jul-29 18:31N 39°56' W 075°08'0 0.0
2015-Jul-29 17:31N 39°56' W 075°08'0 0.0
2015-Jul-29 16:31N 39°56' W 075°08'0 0.0
2015-Jul-29 15:31N 39°56' W 075°08'0 0.0
2015-Jul-29 14:31N 39°56' W 075°08'0 0.0
2015-Jul-29 13:31N 39°56' W 075°08'0 0.0
2015-Jul-29 12:32N 39°56' W 075°08'0 0.0
2015-Jul-29 11:28N 39°56' W 075°08'0 0.0
2015-Jul-29 10:31N 39°56' W 075°08'0 0.0
2015-Jul-29 09:31N 39°56' W 075°08'0 0.0
2015-Jul-29 08:31N 39°56' W 075°08'0 0.0
2015-Jul-29 07:31N 39°56' W 075°08'0 0.0
2015-Jul-29 06:33N 39°56' W 075°08'0 0.0
2015-Jul-29 05:33N 39°56' W 075°08'0 0.0
2015-Jul-29 04:33N 39°56' W 075°08'0 0.0
2015-Jul-29 03:33N 39°56' W 075°08'0 0.0
2015-Jul-29 02:33N 39°56' W 075°08'5 4.8
2015-Jul-29 01:33N 39°53' W 075°12'9 9.3
2015-Jul-29 00:33N 39°49' W 075°23'9 9.3
2015-Jul-28 23:33N 39°42' W 075°31'1313.0
2015-Jul-28 22:33N 39°29' W 075°34'1514.8
2015-Jul-28 21:33N 39°17' W 075°22'1514.6
2015-Jul-28 20:33N 39°05' W 075°11'1514.8
2015-Jul-28 19:34N 38°52' W 075°04'1312.6
2015-Jul-28 18:33N 38°42' W 074°54'1312.8
2015-Jul-28 17:33N 38°32' W 074°44'6 6.2
2015-Jul-28 16:32N 38°27' W 074°38'13 9.9
2015-Jul-28 15:14N 38°22' W 074°23'2 1.8
2015-Jul-28 14:17N 38°22' W 074°21'2810.1
2015-Jul-28 11:33N 38°15' W 073°47'2712.8
2015-Jul-28 09:26N 38°05' W 073°14'1213.2
2015-Jul-28 08:31N 38°02' W 072°59'1413.5
2015-Jul-28 07:31N 37°58' W 072°43'1413.6
2015-Jul-28 06:31N 37°53' W 072°27'1313.7
2015-Jul-28 05:33N 37°49' W 072°11'  

Dump ship's entire track history